Versailles, IN

1:55 PM EST on January 29, 2015 (GMT -0500)
APRSWXNET Versailles IN US | Change Station
CLOSE
Current Station
Personal Weather Station
Location: Versailles, IN
Elevation: 961 ft
Nearby Weather Stations

Elev 961 ft 39.07 °N, 85.25 °W | Updated 21 minutes ago

Overcast
Overcast
43 °F
Feels Like 37 °F
N
12
Wind Variable Wind from SW
Gusts 19.0 mph

Today
High -- | Low -- °F
--% Chance of Precip.
Yesterday
High -- | Low -- °F
Precip. -- in
7:50 AM 5:58 PM
Waxing Gibbous, 76% visible
Pressure 29.84 in
Visibility 8.0 miles
Clouds Scattered Clouds 2900 ft
Overcast 3900 ft
Windchill 37 °F
Dew Point 38 °F
Humidity 81%
Rainfall 0.07 in
Snow Depth Not available.
UV 1 out of 12
Pollen .10 out of 12
Air Quality Not available.
Flu Activity Not available.
SPECI KCVG 291837Z 25020G34KT 8SM SCT029 OVC039 08/02 A2984 RMK AO2 PK WND 26034/1829

More Conditions Fewer Conditions

Pressure 29.84 in
Visibility 8.0 miles
Clouds Scattered Clouds 2900 ft
Overcast 3900 ft
Windchill 37 °F
Dew Point 38 °F
Humidity 81%
Rainfall 0.07 in
Snow Depth Not available.
UV 1 out of 12
Pollen .10 out of 12
Air Quality Not available.
Flu Activity Not available.
SPECI KCVG 291837Z 25020G34KT 8SM SCT029 OVC039 08/02 A2984 RMK AO2 PK WND 26034/1829

More Conditions Fewer Conditions

10-Day Weather Forecast

Almanac

Astronomy

Jan. 29, 2015 Rise Set
Actual Time
Civil Twilight
Nautical Twilight
Astronomical Twilight
Moon
Length of Visible Light
Length of Day
Tomorrow will be .
, % of the Moon is Illuminated

Today's Extremes

State Highs State Lows

Community

WunderPhotos

Upload Photos

1,791,530 photos uploaded!

WunderBlogs® & News

Nearby

Air Quality

  Air Quality AQ Index Pollutant
Not available.

Snow Depth

Station Depth Elevation

Earthquake Activity

City Distance Mag. Time & Date
Minimum magnitude displayed is 2.5.

Coastal Water Temperatures

Place Temperature

Nearby Weather Stations